Time;durP1;ratioP1;P1;durP2;ratioP2;P2;SDS_P1;SDS_P2;PMS_P1;PMS_P2;Temp;Humidity;BMP_temperature;BMP_pressure;BME280_temperature;BME280_humidity;BME280_pressure;Samples;Min_cycle;Max_cycle;Signal;HPM_P1;HPM_P2
2021/03/21 00:01:26;;;;;;;14.15;7.93;;;;;;;0.49;46.22;100300.66;4954808;29;20150;-71
2021/03/21 00:03:53;;;;;;;19.25;8.65;;;;;;;0.49;46.33;100300.66;4955116;29;20051;-72
2021/03/21 00:06:19;;;;;;;18.90;8.73;;;;;;;0.53;46.15;100292.91;4953255;28;20554;-72
2021/03/21 00:08:48;;;;;;;13.55;7.97;;;;;;;0.53;46.11;100286.88;4955053;29;20084;-72
2021/03/21 00:11:15;;;;;;;16.00;8.15;;;;;;;0.47;46.33;100284.31;4954576;29;20496;-72
2021/03/21 00:13:41;;;;;;;19.42;7.97;;;;;;;0.43;46.36;100282.56;4954957;29;20082;-71
2021/03/21 00:16:07;;;;;;;16.20;7.80;;;;;;;0.42;46.53;100278.28;4954633;29;20582;-72
2021/03/21 00:18:36;;;;;;;14.70;7.38;;;;;;;0.37;46.56;100272.22;4954192;29;20051;-70
2021/03/21 00:21:04;;;;;;;18.42;8.25;;;;;;;0.35;46.71;100266.19;4952540;28;20405;-71
2021/03/21 00:23:31;;;;;;;19.58;8.52;;;;;;;0.30;46.64;100256.75;4954802;29;20487;-71
2021/03/21 00:25:57;;;;;;;20.02;8.10;;;;;;;0.24;46.89;100245.56;4953579;29;20082;-71
2021/03/21 00:28:27;;;;;;;15.20;7.70;;;;;;;0.15;47.02;100251.50;4954806;29;20109;-70
2021/03/21 00:30:55;;;;;;;17.48;7.75;;;;;;;0.14;47.12;100244.63;4954762;29;20342;-71
2021/03/21 00:33:23;;;;;;;14.48;7.47;;;;;;;0.09;47.03;100236.03;4954080;29;20066;-70
2021/03/21 00:35:51;;;;;;;13.75;7.63;;;;;;;0.03;47.22;100238.59;4954678;29;20055;-71
2021/03/21 00:38:20;;;;;;;16.35;8.90;;;;;;;-0.01;47.32;100231.69;4954276;29;20474;-70
2021/03/21 00:40:47;;;;;;;12.82;7.05;;;;;;;-0.06;47.51;100238.53;4954466;29;20098;-70
2021/03/21 00:43:14;;;;;;;17.55;8.05;;;;;;;-0.07;47.40;100231.66;4954021;29;20075;-70
2021/03/21 00:45:41;;;;;;;18.52;8.30;;;;;;;-0.07;47.64;100211.91;4953958;29;20147;-71
2021/03/21 00:48:12;;;;;;;21.65;7.35;;;;;;;-0.07;47.60;100221.34;4953881;29;20613;-72
2021/03/21 00:50:38;;;;;;;13.82;6.97;;;;;;;-0.01;47.38;100213.66;4953701;29;20138;-70
2021/03/21 00:53:04;;;;;;;17.80;8.30;;;;;;;0.06;47.28;100206.81;4951803;29;20055;-70
2021/03/21 00:55:30;;;;;;;16.00;8.10;;;;;;;0.11;47.23;100200.81;4953665;28;20487;-71
2021/03/21 00:57:57;;;;;;;16.90;8.55;;;;;;;0.14;47.40;100199.97;4953538;28;20051;-71
2021/03/21 01:00:25;;;;;;;15.10;7.75;;;;;;;0.17;47.26;100195.66;4952783;28;20414;-71
2021/03/21 01:02:52;;;;;;;12.52;7.07;;;;;;;0.17;47.39;100185.34;4952939;28;20540;-69
2021/03/21 01:05:21;;;;;;;16.27;7.60;;;;;;;0.17;47.50;100177.63;4953418;29;20566;-71
2021/03/21 01:07:50;;;;;;;14.80;7.47;;;;;;;0.19;47.34;100170.75;4953604;29;20067;-70
2021/03/21 01:10:17;;;;;;;14.32;7.15;;;;;;;0.19;47.38;100157.00;4952966;29;20116;-71
2021/03/21 01:12:43;;;;;;;16.98;7.50;;;;;;;0.18;47.36;100153.56;4953245;29;20051;-70
2021/03/21 01:15:10;;;;;;;15.60;8.23;;;;;;;0.18;47.49;100145.81;4953893;29;20579;-70
2021/03/21 01:17:36;;;;;;;17.50;7.43;;;;;;;0.17;47.46;100138.94;4952835;28;20070;-71
2021/03/21 01:20:05;;;;;;;12.48;6.93;;;;;;;0.14;47.70;100144.09;4953315;29;20150;-70
2021/03/21 01:22:31;;;;;;;15.77;7.78;;;;;;;0.12;47.79;100132.94;4953455;29;20047;-71
2021/03/21 01:24:57;;;;;;;16.05;7.32;;;;;;;0.12;48.01;100140.66;4953484;29;20187;-70
2021/03/21 01:27:23;;;;;;;18.88;7.20;;;;;;;0.11;47.88;100126.06;4953520;29;20055;-70
2021/03/21 01:29:49;;;;;;;20.95;8.68;;;;;;;0.09;48.21;100130.34;4953584;29;20051;-70
2021/03/21 01:32:15;;;;;;;12.75;7.60;;;;;;;0.07;48.16;100126.06;4953792;29;20055;-71
2021/03/21 01:34:41;;;;;;;14.27;8.60;;;;;;;0.04;48.36;100111.44;4953645;29;20074;-69
2021/03/21 01:37:08;;;;;;;14.38;6.93;;;;;;;0.02;48.47;100102.84;4953085;29;20098;-70
2021/03/21 01:39:34;;;;;;;10.77;6.90;;;;;;;0.00;48.65;100089.13;4951667;28;20051;-70
2021/03/21 01:42:05;;;;;;;12.15;7.00;;;;;;;-0.05;48.74;100085.63;4953179;29;20059;-71
2021/03/21 01:44:31;;;;;;;16.20;7.05;;;;;;;-0.02;48.69;100077.91;4952949;29;20476;-70
2021/03/21 01:47:32;;;;;;;15.10;7.07;;;;;;;-0.07;49.10;100064.16;4953191;29;20363;-72
2021/03/21 01:49:58;;;;;;;12.60;6.32;;;;;;;-0.08;48.90;100060.72;4953489;29;20055;-71
2021/03/21 01:52:34;;;;;;;11.65;6.75;;;;;;;-0.11;49.15;100059.88;4952453;29;20138;-71
2021/03/21 01:55:02;;;;;;;17.90;7.20;;;;;;;-0.09;49.24;100053.00;4953067;29;20058;-71
2021/03/21 01:57:29;;;;;;;16.83;6.70;;;;;;;-0.10;49.13;100057.28;4952837;29;20055;-69
2021/03/21 01:59:55;;;;;;;13.70;7.03;;;;;;;-0.03;49.30;100048.72;4952774;29;20067;-71
2021/03/21 02:02:21;;;;;;;14.05;6.88;;;;;;;0.04;49.12;100048.75;4952689;29;20055;-72
2021/03/21 02:04:47;;;;;;;14.77;7.80;;;;;;;0.07;49.16;100043.59;4952787;29;20048;-71
2021/03/21 02:07:33;;;;;;;11.48;6.50;;;;;;;0.14;49.09;100034.97;4952028;29;20190;-71
2021/03/21 02:10:11;;;;;;;16.13;6.63;;;;;;;0.23;48.91;100025.53;4952783;29;20093;-71
2021/03/21 02:12:45;;;;;;;9.70;6.18;;;;;;;0.30;48.95;100024.69;4952440;28;20492;-70
2021/03/21 02:15:19;;;;;;;11.80;6.85;;;;;;;0.36;48.92;100007.47;4954133;29;20081;-71
2021/03/21 02:17:53;;;;;;;14.95;7.32;;;;;;;0.48;48.84;100013.50;4950865;29;20063;-71
2021/03/21 02:21:03;;;;;;;13.35;6.32;;;;;;;0.55;48.73;100004.88;4952894;29;20070;-71
2021/03/21 02:23:51;;;;;;;13.15;6.32;;;;;;;0.61;48.86;99991.94;4952657;29;20468;-71
2021/03/21 02:26:45;;;;;;;12.95;7.05;;;;;;;0.69;48.69;99984.22;4953018;29;20146;-72
2021/03/21 02:29:24;;;;;;;13.73;7.20;;;;;;;0.75;48.64;99983.31;4951916;28;20130;-71
2021/03/21 02:31:55;;;;;;;11.90;6.85;;;;;;;0.77;48.54;99976.44;4951722;29;20069;-72
2021/03/21 02:34:28;;;;;;;13.48;6.75;;;;;;;0.76;48.63;99962.69;4952839;29;20463;-71
2021/03/21 02:37:01;;;;;;;15.88;7.38;;;;;;;0.79;48.98;99967.81;4952239;29;20110;-71
2021/03/21 02:39:33;;;;;;;14.48;7.20;;;;;;;0.78;49.01;99953.22;4951737;29;20574;-72
2021/03/21 02:42:05;;;;;;;13.77;6.47;;;;;;;0.82;48.87;99957.50;4951954;29;20119;-71
2021/03/21 02:44:39;;;;;;;13.40;6.53;;;;;;;0.85;48.74;99947.19;4950607;28;20090;-71
2021/03/21 02:47:12;;;;;;;14.85;7.38;;;;;;;0.84;48.91;99932.56;4950955;29;20047;-71
2021/03/21 02:49:42;;;;;;;15.98;7.85;;;;;;;0.89;48.90;99941.13;4952500;29;20047;-70
2021/03/21 02:52:13;;;;;;;10.60;6.03;;;;;;;0.98;48.73;99939.38;4952046;29;20066;-71
2021/03/21 02:54:44;;;;;;;12.40;7.07;;;;;;;1.00;48.65;99932.47;4952483;29;20114;-71
2021/03/21 02:57:13;;;;;;;12.73;6.75;;;;;;;1.02;48.69;99923.00;4951261;29;20587;-69
2021/03/21 02:59:45;;;;;;;10.90;5.93;;;;;;;1.00;48.70;99925.59;4952156;29;20058;-70
2021/03/21 03:02:15;;;;;;;12.57;6.55;;;;;;;1.03;48.83;99920.41;4952098;29;20147;-71
2021/03/21 03:04:45;;;;;;;12.02;5.85;;;;;;;1.05;48.90;99916.13;4952811;29;20145;-72
2021/03/21 03:07:19;;;;;;;16.83;6.78;;;;;;;1.07;48.91;99910.94;4952371;29;20086;-72
2021/03/21 03:09:48;;;;;;;13.18;6.65;;;;;;;1.09;48.81;99911.78;4951883;29;20051;-70
2021/03/21 03:12:19;;;;;;;13.68;6.85;;;;;;;1.13;48.85;99903.16;4950662;28;20089;-70
2021/03/21 03:14:47;;;;;;;16.02;6.57;;;;;;;1.17;48.64;99895.38;4949609;29;20047;-71
2021/03/21 03:17:24;;;;;;;17.15;6.78;;;;;;;1.19;48.72;99887.63;4949984;29;20133;-71
2021/03/21 03:19:57;;;;;;;13.60;6.30;;;;;;;1.26;48.74;99888.47;4952523;29;20131;-71
2021/03/21 03:22:29;;;;;;;12.88;7.82;;;;;;;1.32;48.81;99884.09;4951491;29;20346;-71
2021/03/21 03:25:06;;;;;;;14.02;6.10;;;;;;;1.34;48.54;99876.34;4952950;29;20047;-71
2021/03/21 03:27:38;;;;;;;11.35;6.47;;;;;;;1.36;48.42;99870.31;4952683;29;20107;-71
2021/03/21 03:30:08;;;;;;;;;;;;;;;1.52;47.99;99869.31;4952646;29;20063;-71
2021/03/21 03:32:34;;;;;;;13.95;5.38;;;;;;;1.39;48.04;99859.94;4951647;29;19929;-72
2021/03/21 03:35:02;;;;;;;11.35;6.13;;;;;;;1.33;48.34;99856.56;4951447;29;20058;-70
2021/03/21 03:37:28;;;;;;;10.90;6.22;;;;;;;1.34;48.19;99848.78;4951011;29;20079;-71
2021/03/21 03:39:54;;;;;;;11.05;5.20;;;;;;;1.37;48.42;99847.91;4952485;28;20051;-71
2021/03/21 03:42:31;;;;;;;11.52;5.80;;;;;;;1.32;48.45;99841.94;4954537;29;20459;-71
2021/03/21 03:45:12;;;;;;;9.77;5.85;;;;;;;1.34;48.48;99830.72;4954642;29;20073;-72
2021/03/21 03:47:50;;;;;;;14.90;6.00;;;;;;;1.40;48.33;99824.63;4954798;29;20162;-71
2021/03/21 03:50:27;;;;;;;10.68;5.70;;;;;;;1.44;47.97;99818.56;4954070;29;20591;-72
2021/03/21 03:53:07;;;;;;;16.20;6.72;;;;;;;1.45;48.22;99812.53;4955194;29;20051;-71
2021/03/21 03:55:45;;;;;;;12.90;5.57;;;;;;;1.46;47.84;99803.94;4955396;29;20058;-71
2021/03/21 03:58:20;;;;;;;14.77;6.35;;;;;;;1.50;47.96;99803.91;4955039;29;20133;-72
2021/03/21 04:00:57;;;;;;;7.78;5.78;;;;;;;1.53;47.85;99801.28;4955177;29;20051;-72
2021/03/21 04:03:34;;;;;;;9.43;5.82;;;;;;;1.53;47.70;99793.53;4954561;29;20150;-72
2021/03/21 04:06:05;;;;;;;11.27;6.05;;;;;;;1.59;47.26;99795.19;4953236;28;20051;-72
2021/03/21 04:08:36;;;;;;;10.52;5.57;;;;;;;1.58;47.82;99792.63;4954549;29;20062;-71
2021/03/21 04:11:10;;;;;;;15.15;7.00;;;;;;;1.56;47.72;99794.38;4948060;29;20059;-71
2021/03/21 04:13:39;;;;;;;14.70;6.93;;;;;;;1.59;47.62;99784.00;4953521;29;20143;-71
2021/03/21 04:16:10;;;;;;;11.45;6.53;;;;;;;1.58;47.48;99775.41;4954524;29;20066;-72
2021/03/21 04:18:40;;;;;;;10.32;5.65;;;;;;;1.53;47.44;99774.59;4955016;29;20099;-71
2021/03/21 04:21:12;;;;;;;11.48;6.28;;;;;;;1.48;47.58;99766.03;4954654;29;20415;-72
2021/03/21 04:23:44;;;;;;;10.32;5.85;;;;;;;1.51;47.51;99766.88;4954815;29;20095;-71
2021/03/21 04:26:15;;;;;;;19.13;11.38;;;;;;;1.56;47.22;99771.97;4954379;29;20113;-71
2021/03/21 04:28:44;;;;;;;12.73;7.78;;;;;;;1.63;47.18;99767.59;4953780;29;20090;-71
2021/03/21 04:31:14;;;;;;;11.88;6.40;;;;;;;1.60;47.32;99763.31;4954804;29;20093;-71
2021/03/21 04:33:45;;;;;;;12.77;6.13;;;;;;;1.58;47.05;99753.88;4955210;29;20146;-73
2021/03/21 04:36:16;;;;;;;10.15;5.97;;;;;;;1.58;47.05;99751.28;4955774;29;20059;-71
2021/03/21 04:38:45;;;;;;;9.45;5.10;;;;;;;1.56;46.90;99759.06;4955606;29;20099;-72
2021/03/21 04:41:22;;;;;;;10.65;5.65;;;;;;;1.55;46.87;99757.34;4955177;29;20082;-70
2021/03/21 04:43:52;;;;;;;11.90;5.38;;;;;;;1.57;46.91;99744.41;4953410;29;20058;-71
2021/03/21 04:46:24;;;;;;;9.37;5.87;;;;;;;1.56;46.65;99748.72;4954541;29;20051;-72
2021/03/21 04:48:52;;;;;;;8.98;5.10;;;;;;;1.59;46.85;99742.66;4955059;29;20047;-72
2021/03/21 04:51:22;;;;;;;11.68;5.70;;;;;;;1.62;46.69;99740.06;4954061;28;20109;-72
2021/03/21 04:53:52;;;;;;;9.50;5.50;;;;;;;1.64;46.50;99736.56;4954168;28;20165;-71
2021/03/21 04:56:25;;;;;;;12.27;5.80;;;;;;;1.68;46.63;99730.53;4954618;29;20138;-72
2021/03/21 04:58:57;;;;;;;12.40;5.65;;;;;;;1.67;46.82;99721.06;4954718;29;20059;-71
2021/03/21 05:01:26;;;;;;;;;;;;;;;1.81;46.38;99724.34;4954735;29;20142;-72
2021/03/21 05:04:00;;;;;;;15.55;6.43;;;;;;;1.74;46.26;99727.00;4954891;29;19994;-72
2021/03/21 05:06:44;;;;;;;9.35;5.63;;;;;;;1.69;46.47;99706.41;4953503;29;20066;-72
2021/03/21 05:09:17;;;;;;;9.85;5.32;;;;;;;1.66;46.53;99714.16;4956028;29;20510;-72
2021/03/21 05:11:52;;;;;;;9.02;6.03;;;;;;;1.67;46.35;99709.88;4955644;29;20046;-72
2021/03/21 05:14:26;;;;;;;12.50;5.90;;;;;;;1.68;46.61;99696.09;4954606;29;20497;-77
2021/03/21 05:17:02;;;;;;;16.38;6.97;;;;;;;1.73;46.39;99695.16;4954942;29;20086;-77
2021/03/21 05:19:41;;;;;;;10.73;6.30;;;;;;;1.76;46.37;99697.69;4955381;29;20506;-77
2021/03/21 05:22:18;;;;;;;12.57;7.13;;;;;;;1.77;46.30;99695.97;4954708;29;20408;-78
2021/03/21 05:24:52;;;;;;;13.52;5.78;;;;;;;1.73;46.31;99689.13;4954863;29;20054;-77
2021/03/21 05:27:26;;;;;;;13.40;6.60;;;;;;;1.74;46.18;99690.84;4954717;29;20556;-78
2021/03/21 05:29:58;;;;;;;12.68;6.90;;;;;;;1.80;46.38;99680.41;4955399;29;20047;-78
2021/03/21 05:32:26;;;;;;;10.65;6.38;;;;;;;1.88;46.02;99683.78;4953821;28;20102;-79
2021/03/21 05:34:54;;;;;;;12.40;6.55;;;;;;;1.91;46.16;99683.75;4955069;29;20116;-79
2021/03/21 05:37:27;;;;;;;12.77;6.28;;;;;;;1.89;46.30;99675.16;4952916;29;20574;-81
2021/03/21 05:40:02;;;;;;;10.45;6.57;;;;;;;1.92;46.18;99672.53;4955150;29;20197;-79
2021/03/21 05:43:17;;;;;;;10.13;6.20;;;;;;;1.94;46.29;99665.59;4954508;29;20051;-79
2021/03/21 05:46:04;;;;;;;14.63;6.82;;;;;;;1.92;46.30;99662.19;4954611;29;20055;-80
2021/03/21 05:48:55;;;;;;;12.43;7.53;;;;;;;1.96;46.26;99663.84;4954885;29;20082;-78
2021/03/21 05:51:58;;;;;;;11.95;6.20;;;;;;;1.91;46.51;99664.78;4955256;29;20566;-79
2021/03/21 05:54:54;;;;;;;13.63;7.03;;;;;;;1.93;46.25;99666.47;4954804;29;20062;-82
2021/03/21 05:57:47;;;;;;;13.18;6.50;;;;;;;1.90;46.35;99676.88;4954150;29;20054;-78
2021/03/21 06:00:45;;;;;;;10.93;7.10;;;;;;;1.91;46.43;99670.81;4946482;29;20066;-82
2021/03/21 06:03:48;;;;;;;13.07;7.07;;;;;;;1.93;46.51;99668.22;4954013;28;20051;-80
2021/03/21 06:06:55;;;;;;;13.80;7.03;;;;;;;1.98;46.73;99662.09;4937390;29;20147;-80
2021/03/21 06:09:34;;;;;;;12.65;7.15;;;;;;;2.06;46.22;99657.66;4953932;29;20082;-79
2021/03/21 06:12:15;;;;;;;12.68;6.63;;;;;;;2.11;46.33;99653.31;4955193;28;20597;-79
2021/03/21 06:15:17;;;;;;;14.70;7.32;;;;;;;2.11;46.33;99645.56;4953196;28;20742;-78
2021/03/21 06:18:08;;;;;;;17.15;7.13;;;;;;;2.18;46.50;99645.47;4955527;28;20150;-81
2021/03/21 06:20:59;;;;;;;13.05;6.80;;;;;;;2.21;46.48;99635.06;4953822;28;20070;-78
2021/03/21 06:23:58;;;;;;;9.48;6.38;;;;;;;2.17;46.76;99641.19;4933849;29;20135;-80
2021/03/21 06:26:32;;;;;;;12.23;6.55;;;;;;;2.19;46.84;99631.66;4936502;29;20047;-80
2021/03/21 06:29:30;;;;;;;15.38;7.15;;;;;;;2.33;46.87;99619.38;4953597;29;20156;-79
2021/03/21 06:32:34;;;;;;;15.05;7.80;;;;;;;2.44;46.72;99622.66;4953050;29;20491;-78
2021/03/21 06:35:11;;;;;;;15.27;8.02;;;;;;;2.48;46.75;99616.53;4936082;29;20171;-79
2021/03/21 06:38:19;;;;;;;19.52;8.52;;;;;;;2.47;47.18;99606.22;4953542;29;20059;-79
2021/03/21 06:41:05;;;;;;;24.05;11.45;;;;;;;2.49;47.05;99605.31;4916531;29;20109;-80
2021/03/21 06:43:55;;;;;;;21.05;9.80;;;;;;;2.55;47.21;99599.22;4934185;29;20103;-80
2021/03/21 06:46:47;;;;;;;22.05;9.23;;;;;;;2.53;47.33;99595.81;4948426;29;20071;-81
2021/03/21 06:49:38;;;;;;;17.48;8.23;;;;;;;2.64;47.36;99588.69;4948709;28;20066;-79
2021/03/21 06:52:21;;;;;;;13.10;6.88;;;;;;;2.69;47.17;99587.72;4954882;29;20150;-80
2021/03/21 06:55:03;;;;;;;12.70;6.70;;;;;;;2.58;47.67;99589.66;4953902;28;20302;-80
2021/03/21 06:58:05;;;;;;;18.85;8.52;;;;;;;2.66;47.82;99579.16;4946886;28;20058;-79
2021/03/21 07:01:00;;;;;;;16.63;8.18;;;;;;;2.66;47.77;99577.44;4956675;28;20055;-77
2021/03/21 07:04:07;;;;;;;16.90;8.60;;;;;;;2.75;48.10;99579.03;4951459;28;20561;-81
2021/03/21 07:07:10;;;;;;;46.75;18.20;;;;;;;2.90;47.83;99570.13;4953503;29;20138;-80
2021/03/21 07:09:51;;;;;;;54.05;23.15;;;;;;;3.03;47.56;99563.84;4931234;29;20471;-78
2021/03/21 07:12:41;;;;;;;43.03;16.40;;;;;;;2.88;48.43;99579.66;4952970;29;20063;-79
2021/03/21 07:15:36;;;;;;;71.93;26.17;;;;;;;2.71;49.01;99565.28;4954963;28;20048;-79
2021/03/21 07:18:29;;;;;;;58.25;21.88;;;;;;;2.87;48.95;99571.03;4959941;29;20588;-78
2021/03/21 07:21:15;;;;;;;46.92;18.90;;;;;;;2.90;49.13;99557.19;4960929;29;20071;-80
2021/03/21 07:24:24;;;;;;;34.60;15.55;;;;;;;2.98;48.99;99552.72;4957278;29;20062;-79
2021/03/21 07:27:20;;;;;;;20.73;11.18;;;;;;;2.95;49.11;99552.78;4956911;29;20384;-79
2021/03/21 07:29:48;;;;;;;22.08;10.73;;;;;;;3.08;48.86;99538.72;4956548;28;20175;-79
2021/03/21 07:32:34;;;;;;;21.60;9.85;;;;;;;3.08;49.24;99543.03;4955814;29;20066;-79
2021/03/21 07:35:26;;;;;;;16.35;9.00;;;;;;;3.06;49.22;99545.66;4956529;28;20071;-79
2021/03/21 07:38:03;;;;;;;17.17;9.27;;;;;;;3.09;49.20;99544.75;4939651;29;20087;-80
2021/03/21 07:40:38;;;;;;;24.02;11.25;;;;;;;3.11;49.28;99538.66;4956348;29;20062;-78
2021/03/21 07:43:31;;;;;;;17.17;8.93;;;;;;;3.06;49.66;99546.50;4956948;29;20529;-77
2021/03/21 07:46:14;;;;;;;17.55;9.52;;;;;;;3.09;49.61;99514.53;4956614;29;20070;-78
2021/03/21 07:49:10;;;;;;;16.92;9.77;;;;;;;3.10;49.70;99526.59;4956864;29;20090;-77
2021/03/21 07:51:50;;;;;;;13.70;8.15;;;;;;;3.04;49.83;99516.34;4951791;29;20083;-78
2021/03/21 07:54:36;;;;;;;20.35;9.68;;;;;;;3.03;49.98;99509.47;4956683;29;20138;-78
2021/03/21 07:57:10;;;;;;;20.38;9.63;;;;;;;3.11;50.04;99511.91;4956652;29;20138;-76
2021/03/21 07:59:38;;;;;;;20.10;10.63;;;;;;;3.23;49.57;99502.16;4956365;29;20579;-78
2021/03/21 08:02:05;;;;;;;13.77;9.85;;;;;;;3.27;49.62;99501.19;4956910;29;20058;-78
2021/03/21 08:04:37;;;;;;;17.08;10.93;;;;;;;3.25;49.98;99492.63;4956701;29;20114;-78
2021/03/21 08:07:14;;;;;;;19.25;10.85;;;;;;;3.16;50.29;99490.22;4957158;29;20142;-79
2021/03/21 08:09:42;;;;;;;18.95;9.15;;;;;;;3.09;50.46;99498.97;4956776;29;20443;-78
2021/03/21 08:12:27;;;;;;;15.85;9.80;;;;;;;3.07;50.70;99498.16;4955199;28;20578;-78
2021/03/21 08:14:57;;;;;;;19.48;10.20;;;;;;;3.09;50.60;99491.22;4937145;29;20052;-77
2021/03/21 08:17:26;;;;;;;16.17;10.15;;;;;;;3.04;50.92;99483.53;4946681;29;20158;-78
2021/03/21 08:19:58;;;;;;;18.63;10.60;;;;;;;2.98;50.95;99475.06;4956679;29;20134;-76
2021/03/21 08:22:27;;;;;;;20.55;11.23;;;;;;;3.08;50.44;99476.56;4956032;29;20522;-77
2021/03/21 08:24:58;;;;;;;26.98;12.02;;;;;;;3.14;50.65;99471.28;4962517;29;20484;-76
2021/03/21 08:27:26;;;;;;;21.30;11.45;;;;;;;3.17;50.76;99466.03;4966881;28;20083;-78
2021/03/21 08:29:58;;;;;;;22.08;11.43;;;;;;;3.19;50.71;99464.25;4956166;29;20143;-77
2021/03/21 08:32:26;;;;;;;26.45;12.20;;;;;;;3.28;50.64;99470.97;4955655;29;20047;-78
2021/03/21 08:34:53;;;;;;;26.83;13.43;;;;;;;3.35;50.56;99465.66;4956088;29;20086;-78
2021/03/21 08:37:28;;;;;;;23.70;11.30;;;;;;;3.24;50.83;99474.50;4955489;29;20090;-77
2021/03/21 08:39:59;;;;;;;21.98;10.95;;;;;;;3.26;50.97;99465.81;4955710;29;20110;-77
2021/03/21 08:42:32;;;;;;;55.58;22.23;;;;;;;3.27;50.81;99462.34;4954011;29;20055;-77
2021/03/21 08:45:20;;;;;;;61.72;26.02;;;;;;;3.45;50.63;99455.06;4954833;29;20079;-77
2021/03/21 08:47:47;;;;;;;28.80;14.82;;;;;;;3.56;50.13;99466.06;4954607;29;20052;-78
2021/03/21 08:50:31;;;;;;;19.75;11.05;;;;;;;3.49;50.62;99461.88;4954716;29;20513;-77
2021/03/21 08:52:57;;;;;;;27.85;12.73;;;;;;;3.48;50.72;99455.00;4954721;28;20051;-79
2021/03/21 08:55:28;;;;;;;27.90;14.10;;;;;;;3.49;50.74;99449.78;4954748;29;20047;-77
2021/03/21 08:57:54;;;;;;;29.05;14.35;;;;;;;3.64;50.48;99458.94;4954881;29;20078;-78
2021/03/21 09:00:32;;;;;;;21.55;11.48;;;;;;;3.64;50.61;99458.94;4955090;29;20146;-78
2021/03/21 09:02:58;;;;;;;31.02;13.77;;;;;;;3.59;50.68;99459.06;4953283;29;20507;-78
2021/03/21 09:05:26;;;;;;;32.58;16.55;;;;;;;3.71;50.62;99457.91;4954600;29;20051;-78
2021/03/21 09:08:05;;;;;;;33.70;17.10;;;;;;;3.81;50.49;99456.81;4953075;29;20058;-77
2021/03/21 09:10:32;;;;;;;24.55;12.85;;;;;;;3.83;50.23;99452.44;4948864;29;20142;-78
2021/03/21 09:13:22;;;;;;;22.92;13.63;;;;;;;4.01;49.94;99440.78;4954168;29;20062;-79
2021/03/21 09:16:01;;;;;;;27.98;14.40;;;;;;;4.40;49.24;99438.94;4951745;29;20403;-80
2021/03/21 09:18:29;;;;;;;20.15;11.85;;;;;;;4.46;49.17;99432.72;4948936;29;20070;-71
2021/03/21 09:21:03;;;;;;;30.00;14.18;;;;;;;4.39;49.75;99438.97;4954833;29;20114;-73
2021/03/21 09:23:39;;;;;;;29.50;14.77;;;;;;;4.60;49.19;99430.63;4953749;29;20403;-71
2021/03/21 09:26:24;;;;;;;21.65;13.52;;;;;;;4.67;49.21;99436.47;4954086;29;20051;-73
2021/03/21 09:28:54;;;;;;;29.77;13.77;;;;;;;4.81;49.11;99434.38;4950628;29;20062;-73
2021/03/21 09:31:21;;;;;;;22.63;12.37;;;;;;;4.98;48.68;99429.53;4953412;29;20058;-73
2021/03/21 09:33:53;;;;;;;27.73;14.23;;;;;;;5.16;48.61;99431.59;4953470;29;20079;-74
2021/03/21 09:36:24;;;;;;;19.73;11.65;;;;;;;5.32;48.11;99429.41;4953747;29;20043;-73
2021/03/21 09:38:55;;;;;;;20.95;11.15;;;;;;;5.31;48.39;99427.69;4954033;28;20083;-74
2021/03/21 09:41:22;;;;;;;26.45;14.20;;;;;;;5.64;47.93;99425.81;4953515;29;20843;-73
2021/03/21 09:43:49;;;;;;;19.27;11.05;;;;;;;5.73;47.58;99427.28;4951506;29;20085;-72
2021/03/21 09:46:22;;;;;;;23.17;12.90;;;;;;;5.52;48.14;99428.78;4953215;29;20210;-74
2021/03/21 09:49:02;;;;;;;26.02;13.15;;;;;;;5.38;48.63;99436.16;4953827;29;20051;-74
2021/03/21 09:51:40;;;;;;;28.73;15.57;;;;;;;5.20;48.64;99425.44;4941485;29;20397;-74
2021/03/21 09:54:12;;;;;;;24.50;14.73;;;;;;;5.23;48.90;99432.28;4953181;29;20061;-72
2021/03/21 09:56:51;;;;;;;26.23;13.60;;;;;;;5.28;48.64;99434.75;4952970;29;20220;-73
2021/03/21 09:59:44;;;;;;;25.35;14.63;;;;;;;5.26;48.77;99431.34;4951482;29;20043;-76
2021/03/21 10:02:22;;;;;;;24.77;14.00;;;;;;;5.14;49.16;99427.34;4952892;29;20051;-72
2021/03/21 10:04:56;;;;;;;29.20;15.40;;;;;;;5.14;49.26;99433.38;4952737;29;20079;-73
2021/03/21 10:07:35;;;;;;;26.20;12.68;;;;;;;5.20;48.85;99425.44;4952596;29;20153;-72
2021/03/21 10:10:03;;;;;;;26.42;12.90;;;;;;;5.22;49.08;99424.53;4953347;29;20067;-72
2021/03/21 10:12:29;;;;;;;20.52;12.40;;;;;;;5.18;49.17;99424.59;4952487;29;20051;-71
2021/03/21 10:15:03;;;;;;;23.85;14.63;;;;;;;5.01;49.59;99421.66;4953073;29;20048;-71
2021/03/21 10:17:50;;;;;;;32.28;16.33;;;;;;;5.07;49.35;99420.63;4951841;29;20050;-70
2021/03/21 10:20:18;;;;;;;22.67;12.05;;;;;;;5.05;49.54;99423.28;4952652;29;20154;-73
2021/03/21 10:23:06;;;;;;;21.48;13.00;;;;;;;5.15;49.48;99416.91;4951717;29;20186;-72
2021/03/21 10:25:56;;;;;;;28.08;14.60;;;;;;;5.50;48.66;99415.00;4941717;29;20455;-73
2021/03/21 10:28:33;;;;;;;29.10;16.45;;;;;;;5.74;48.13;99414.22;4951332;29;20059;-72
2021/03/21 10:31:36;;;;;;;22.98;12.82;;;;;;;5.55;48.83;99415.69;4951731;29;20083;-72
2021/03/21 10:34:35;;;;;;;24.42;12.57;;;;;;;5.46;49.06;99413.41;4944862;29;20062;-73
2021/03/21 10:37:01;;;;;;;26.02;13.32;;;;;;;5.37;49.17;99406.72;4948857;29;20475;-73
2021/03/21 10:39:58;;;;;;;20.80;12.88;;;;;;;5.39;49.38;99401.47;4952135;29;20062;-73
2021/03/21 10:42:46;;;;;;;26.13;14.82;;;;;;;5.54;49.24;99403.59;4947190;29;20518;-73
2021/03/21 10:45:15;;;;;;;20.85;12.93;;;;;;;5.48;49.42;99407.25;4934139;29;20511;-73
2021/03/21 10:47:50;;;;;;;20.30;12.63;;;;;;;5.19;50.09;99395.13;4951746;29;20418;-72
2021/03/21 10:50:59;;;;;;;24.75;14.23;;;;;;;5.04;50.92;99398.19;4951730;29;20542;-73
2021/03/21 10:53:33;;;;;;;29.83;15.48;;;;;;;4.99;50.90;99394.00;4938855;29;20193;-74
2021/03/21 10:56:16;;;;;;;36.08;17.48;;;;;;;5.04;51.17;99392.16;4952096;29;20063;-73
2021/03/21 10:59:08;;;;;;;26.67;14.70;;;;;;;5.13;51.22;99395.31;4952346;29;20083;-73
2021/03/21 11:01:36;;;;;;;31.40;16.10;;;;;;;5.41;50.84;99384.06;4951431;29;20059;-71
2021/03/21 11:04:16;;;;;;;27.00;15.73;;;;;;;5.67;50.74;99384.13;4952373;28;20091;-74
2021/03/21 11:06:52;;;;;;;29.65;16.13;;;;;;;5.92;50.01;99373.78;4951567;29;20447;-73
2021/03/21 11:09:20;;;;;;;23.73;13.52;;;;;;;5.87;50.16;99380.03;4951447;29;20066;-71
2021/03/21 11:11:49;;;;;;;23.00;13.85;;;;;;;5.75;50.38;99378.66;4951381;28;20357;-72
2021/03/21 11:14:21;;;;;;;30.30;16.63;;;;;;;5.67;50.55;99378.91;4953104;28;20166;-73
2021/03/21 11:16:57;;;;;;;36.10;18.20;;;;;;;5.76;50.97;99368.22;4950536;28;20077;-73
2021/03/21 11:19:26;;;;;;;28.85;16.50;;;;;;;5.72;50.58;99363.16;4951746;28;20043;-72
2021/03/21 11:21:52;;;;;;;29.90;15.88;;;;;;;5.70;50.72;99376.22;4950177;29;20134;-73
2021/03/21 11:24:24;;;;;;;29.92;16.77;;;;;;;5.65;51.25;99366.88;4950120;29;20784;-73
2021/03/21 11:26:52;;;;;;;34.75;18.30;;;;;;;5.60;51.54;99369.59;4951559;29;20057;-71
2021/03/21 11:29:31;;;;;;;27.80;16.85;;;;;;;5.65;51.65;99362.53;4952119;29;20232;-74
2021/03/21 11:32:04;;;;;;;28.85;17.92;;;;;;;5.84;51.35;99356.72;4950972;29;20058;-73
2021/03/21 11:34:33;;;;;;;24.17;15.60;;;;;;;5.92;50.97;99362.53;4952456;29;20055;-73
2021/03/21 11:37:03;;;;;;;44.33;26.52;;;;;;;5.94;51.19;99352.94;4951188;29;20086;-72
2021/03/21 11:39:34;;;;;;;38.58;20.50;;;;;;;5.73;51.78;99350.09;4954239;29;20571;-74
2021/03/21 11:42:02;;;;;;;;;;;;;;;5.71;51.14;99351.91;4962013;29;20070;-73
2021/03/21 11:44:30;;;;;;;39.70;21.27;;;;;;;5.48;51.93;99349.22;4955576;29;20427;-74
2021/03/21 11:47:10;;;;;;;38.15;22.20;;;;;;;5.41;52.69;99342.47;4951576;29;20047;-72
2021/03/21 11:49:36;;;;;;;45.83;22.55;;;;;;;5.46;52.88;99345.81;4950587;29;20067;-72
2021/03/21 11:52:05;;;;;;;53.45;24.50;;;;;;;5.41;53.04;99342.47;4951645;29;20055;-74
2021/03/21 11:54:34;;;;;;;55.42;24.70;;;;;;;5.42;53.08;99341.63;4951399;29;20051;-72
2021/03/21 11:57:14;;;;;;;47.72;24.05;;;;;;;5.45;53.27;99338.91;4950824;29;20051;-72
2021/03/21 11:59:46;;;;;;;37.57;20.03;;;;;;;5.44;53.21;99330.25;4946977;28;20480;-73
2021/03/21 12:02:26;;;;;;;40.92;22.05;;;;;;;5.47;53.32;99331.91;4952685;28;20047;-74
2021/03/21 12:04:53;;;;;;;28.90;18.40;;;;;;;5.70;52.75;99326.81;4949854;28;20051;-74
2021/03/21 12:07:24;;;;;;;40.05;19.52;;;;;;;5.92;52.33;99316.56;4954265;29;20518;-75
2021/03/21 12:09:52;;;;;;;32.97;19.00;;;;;;;6.07;52.21;99315.19;4952973;29;20146;-74